Main page
METAR-TAF:

METAR-TAF

Airports :

St. Mary's Airport

St Mary's, Alaska, United States

latitude: 62-03N, longitude: 163-18W, elevation: 312 ft

Current weather observation

The report was made 44 minutes ago, at 14:56 UTC
Wind 6 mph from the Northwest
Temperature -13°F
Humidity 83%
Pressure 30.33 in. Hg
Visibility: 8 miles
Clear sky
light snow

METAR: PASM 291456Z AUTO 32005KT 8SM -SN CLR M25/M27 A3033 RMK AO2 SNE10B39 SLP288 P0000 60000 T12501272 51006 FZRANO

Time: 06:40 (15:40 UTC)


TAF: missing

Weather observations and forecasts of more than 4000 airports (METAR and TAF reports).

The available stations are represented by yellow and red dots on the map.

Hover mouse over dot to see the name of the station.

Then click to see weather observations and forecasts.

To change the map : click on the green buttons with a black cross to zoom in, on the green button with a dash to zoom out, or on the green arrows for adjacent maps.


METAR-TAF: